createdAt,value
2019-05-18T00:00:31.650Z,1011.4
2019-05-18T00:01:31.651Z,1011.4
2019-05-18T00:02:31.735Z,1011.4
2019-05-18T00:03:31.730Z,1011.5
2019-05-18T00:04:31.809Z,1011.5
2019-05-18T00:05:31.768Z,1011.4
2019-05-18T00:06:31.795Z,1011.5
2019-05-18T00:07:31.810Z,1011.5
2019-05-18T00:08:31.834Z,1011.5
2019-05-18T00:09:31.957Z,1011.6
2019-05-18T00:10:31.872Z,1011.5
2019-05-18T00:11:31.930Z,1011.5
2019-05-18T00:12:31.920Z,1011.5
2019-05-18T00:13:31.938Z,1011.4
2019-05-18T00:14:31.988Z,1011.5
2019-05-18T00:15:32.010Z,1011.5
2019-05-18T00:16:32.010Z,1011.5
2019-05-18T00:17:32.033Z,1011.5
2019-05-18T00:18:32.064Z,1011.5
2019-05-18T00:19:32.089Z,1011.5
2019-05-18T00:20:32.099Z,1011.5
2019-05-18T00:21:32.190Z,1011.5
2019-05-18T00:22:32.105Z,1011.4
2019-05-18T00:23:32.086Z,1011.5
2019-05-18T00:24:32.119Z,1011.4
2019-05-18T00:25:32.109Z,1011.4
2019-05-18T00:26:32.140Z,1011.4
2019-05-18T00:27:32.115Z,1011.4
2019-05-18T00:28:32.139Z,1011.5
2019-05-18T00:29:32.142Z,1011.4
2019-05-18T00:30:32.136Z,1011.5
2019-05-18T00:31:32.195Z,1011.4
2019-05-18T00:32:32.156Z,1011.4
2019-05-18T00:33:32.200Z,1011.5
2019-05-18T00:34:32.161Z,1011.4
2019-05-18T00:35:32.151Z,1011.4
2019-05-18T00:36:32.181Z,1011.4
2019-05-18T00:37:32.222Z,1011.4
2019-05-18T00:38:32.310Z,1011.4
2019-05-18T00:39:32.389Z,1011.4
2019-05-18T00:40:32.355Z,1011.4
2019-05-18T00:41:32.410Z,1011.4
2019-05-18T00:42:32.486Z,1011.4
2019-05-18T00:43:32.513Z,1011.4
2019-05-18T00:44:32.480Z,1011.4
2019-05-18T00:45:32.553Z,1011.4
2019-05-18T00:46:32.657Z,1011.4
2019-05-18T00:47:40.651Z,1011.4
2019-05-18T00:48:32.755Z,1011.4
2019-05-18T00:49:32.753Z,1011.5
2019-05-18T00:50:32.800Z,1011.5
2019-05-18T00:51:32.872Z,1011.5
2019-05-18T00:52:32.921Z,1011.5
2019-05-18T00:53:32.941Z,1011.5
2019-05-18T00:54:32.977Z,1011.5
2019-05-18T00:55:32.998Z,1011.5
2019-05-18T00:56:33.073Z,1011.5
2019-05-18T00:57:33.112Z,1011.4
2019-05-18T00:58:33.160Z,1011.5
2019-05-18T00:59:33.190Z,1011.5
2019-05-18T01:00:33.247Z,1011.5
2019-05-18T01:01:33.301Z,1011.5
2019-05-18T01:02:33.306Z,1011.4
2019-05-18T01:03:33.324Z,1011.4
2019-05-18T01:04:33.384Z,1011.5
2019-05-18T01:05:33.445Z,1011.5
2019-05-18T01:06:33.500Z,1011.5
2019-05-18T01:07:33.568Z,1011.5
2019-05-18T01:08:33.581Z,1011.6
2019-05-18T01:09:33.652Z,1011.5
2019-05-18T01:10:33.671Z,1011.5
2019-05-18T01:11:33.694Z,1011.6
2019-05-18T01:12:33.747Z,1011.5
2019-05-18T01:13:33.720Z,1011.6
2019-05-18T01:14:33.796Z,1011.6
2019-05-18T01:15:33.823Z,1011.6
2019-05-18T01:16:33.866Z,1011.6
2019-05-18T01:17:33.891Z,1011.6
2019-05-18T01:18:33.898Z,1011.6
2019-05-18T01:19:33.934Z,1011.5
2019-05-18T01:20:33.997Z,1011.6
2019-05-18T01:21:33.992Z,1011.6
2019-05-18T01:22:34.065Z,1011.7
2019-05-18T01:23:34.078Z,1011.6
2019-05-18T01:24:34.108Z,1011.6
2019-05-18T01:25:34.137Z,1011.6
2019-05-18T01:26:34.167Z,1011.6
2019-05-18T01:27:34.134Z,1011.6
2019-05-18T01:28:34.191Z,1011.7
2019-05-18T01:29:34.254Z,1011.6
2019-05-18T01:30:34.293Z,1011.7
2019-05-18T01:31:34.277Z,1011.7
2019-05-18T01:32:34.328Z,1011.6
2019-05-18T01:33:34.349Z,1011.6
2019-05-18T01:34:34.371Z,1011.6
2019-05-18T01:35:34.445Z,1011.6
2019-05-18T01:36:34.422Z,1011.6
2019-05-18T01:37:34.476Z,1011.6
2019-05-18T01:38:34.489Z,1011.6
2019-05-18T01:39:34.593Z,1011.6
2019-05-18T01:40:34.602Z,1011.6
2019-05-18T01:41:34.580Z,1011.5
2019-05-18T01:42:34.653Z,1011.6
2019-05-18T01:43:34.659Z,1011.6
2019-05-18T01:44:34.698Z,1011.6
2019-05-18T01:45:34.777Z,1011.6
2019-05-18T01:46:34.767Z,1011.6
2019-05-18T01:47:34.749Z,1011.6
2019-05-18T01:48:34.769Z,1011.6
2019-05-18T01:49:35.048Z,1011.5
2019-05-18T01:50:34.873Z,1011.6
2019-05-18T01:51:35.085Z,1011.6
2019-05-18T01:52:34.891Z,1011.6
2019-05-18T01:53:34.896Z,1011.6
2019-05-18T01:54:34.898Z,1011.6
2019-05-18T01:55:34.932Z,1011.6
2019-05-18T01:56:34.963Z,1011.6
2019-05-18T01:57:35.231Z,1011.5
2019-05-18T01:58:34.968Z,1011.5
2019-05-18T01:59:34.999Z,1011.6
2019-05-18T02:00:35.023Z,1011.5
2019-05-18T02:01:35.039Z,1011.5
2019-05-18T02:02:35.066Z,1011.5
2019-05-18T02:03:35.071Z,1011.5
2019-05-18T02:04:35.087Z,1011.5
2019-05-18T02:05:35.090Z,1011.5
2019-05-18T02:06:35.126Z,1011.6
2019-05-18T02:07:35.151Z,1011.6
2019-05-18T02:08:35.161Z,1011.5
2019-05-18T02:09:35.157Z,1011.6
2019-05-18T02:10:35.147Z,1011.6
2019-05-18T02:11:35.193Z,1011.5
2019-05-18T02:12:35.182Z,1011.6
2019-05-18T02:13:35.150Z,1011.6
2019-05-18T02:14:36.283Z,1011.7
2019-05-18T02:15:35.179Z,1011.5
2019-05-18T02:16:35.182Z,1011.6
2019-05-18T02:17:35.205Z,1011.5
2019-05-18T02:18:38.326Z,1011.5
2019-05-18T02:19:35.210Z,1011.5
2019-05-18T02:20:35.230Z,1011.6
2019-05-18T02:21:35.182Z,1011.5
2019-05-18T02:22:35.192Z,1011.5
2019-05-18T02:23:35.273Z,1011.4
2019-05-18T02:24:35.374Z,1011.5
2019-05-18T02:25:35.370Z,1011.4
2019-05-18T02:26:35.453Z,1011.5
2019-05-18T02:27:35.446Z,1011.5
2019-05-18T02:28:35.502Z,1011.5
2019-05-18T02:29:35.500Z,1011.4
2019-05-18T02:30:35.527Z,1011.5
2019-05-18T02:31:35.643Z,1011.4
2019-05-18T02:32:35.599Z,1011.4
2019-05-18T02:33:35.665Z,1011.5
2019-05-18T02:34:35.755Z,1011.5
2019-05-18T02:35:35.809Z,1011.5
2019-05-18T02:36:35.815Z,1011.5
2019-05-18T02:37:35.853Z,1011.6
2019-05-18T02:38:35.902Z,1011.4
2019-05-18T02:39:35.909Z,1011.6
2019-05-18T02:40:35.985Z,1011.4
2019-05-18T02:41:35.995Z,1011.4
2019-05-18T02:42:35.993Z,1011.4
2019-05-18T02:43:36.004Z,1011.4
2019-05-18T02:44:35.994Z,1011.4
2019-05-18T02:45:36.036Z,1011.5
2019-05-18T02:46:36.084Z,1011.5
2019-05-18T02:47:36.085Z,1011.4
2019-05-18T02:48:48.238Z,1011.4
2019-05-18T02:49:36.201Z,1011.4
2019-05-18T02:50:36.211Z,1011.4
2019-05-18T02:51:36.244Z,1011.3
2019-05-18T02:52:36.349Z,1011.4
2019-05-18T02:53:36.362Z,1011.4
2019-05-18T02:54:36.383Z,1011.4
2019-05-18T02:55:36.384Z,1011.3
2019-05-18T02:56:36.451Z,1011.2
2019-05-18T02:57:36.495Z,1011.3
2019-05-18T02:58:36.494Z,1011.3
2019-05-18T02:59:36.511Z,1011.2
2019-05-18T03:00:36.541Z,1011.2
2019-05-18T03:01:36.575Z,1011.2
2019-05-18T03:02:36.705Z,1011.2
2019-05-18T03:03:36.673Z,1011.2
2019-05-18T03:04:36.776Z,1011.3
2019-05-18T03:05:39.219Z,1011.2
2019-05-18T03:06:36.796Z,1011.2
2019-05-18T03:07:36.870Z,1011.2
2019-05-18T03:08:36.877Z,1011.2
2019-05-18T03:09:36.931Z,1011.2
2019-05-18T03:10:36.953Z,1011.1
2019-05-18T03:11:37.006Z,1011.2
2019-05-18T03:12:37.131Z,1011.2
2019-05-18T03:13:37.105Z,1011.2
2019-05-18T03:14:37.126Z,1011.1
2019-05-18T03:15:37.192Z,1011.2
2019-05-18T03:16:37.233Z,1011.1
2019-05-18T03:17:37.266Z,1011.1
2019-05-18T03:18:37.294Z,1011.1
2019-05-18T03:19:37.309Z,1011.1
2019-05-18T03:20:37.312Z,1011.1
2019-05-18T03:21:37.354Z,1011.1
2019-05-18T03:22:37.439Z,1011.1
2019-05-18T03:23:37.430Z,1011.2
2019-05-18T03:24:37.419Z,1011.2
2019-05-18T03:25:37.473Z,1011.1
2019-05-18T03:26:37.508Z,1011.1
2019-05-18T03:27:37.546Z,1011.1
2019-05-18T03:28:37.526Z,1011
2019-05-18T03:29:37.530Z,1010.9
2019-05-18T03:30:37.692Z,1011
2019-05-18T03:31:37.637Z,1010.9
2019-05-18T03:32:37.744Z,1011
2019-05-18T03:33:37.744Z,1011
2019-05-18T03:34:37.755Z,1011
2019-05-18T03:35:37.791Z,1010.9
2019-05-18T03:36:37.737Z,1011
2019-05-18T03:37:37.781Z,1010.9
2019-05-18T03:38:37.874Z,1011
2019-05-18T03:39:37.831Z,1010.9
2019-05-18T03:40:37.850Z,1011
2019-05-18T03:41:37.882Z,1011
2019-05-18T03:42:37.912Z,1011
2019-05-18T03:43:37.918Z,1011.1
2019-05-18T03:44:37.934Z,1011.1
2019-05-18T03:45:37.954Z,1011.1
2019-05-18T03:46:38.013Z,1011.2
2019-05-18T03:47:38.073Z,1011.2
2019-05-18T03:48:38.018Z,1011.1
2019-05-18T03:49:38.059Z,1011.2
2019-05-18T03:50:38.047Z,1011.1
2019-05-18T03:51:38.093Z,1011.1
2019-05-18T03:52:38.189Z,1011
2019-05-18T03:53:38.138Z,1011
2019-05-18T03:54:38.167Z,1011
2019-05-18T03:55:38.153Z,1011.1
2019-05-18T03:56:38.210Z,1011
2019-05-18T03:57:38.266Z,1011
2019-05-18T03:58:38.211Z,1011
2019-05-18T03:59:38.238Z,1011.1
2019-05-18T04:00:38.300Z,1011.1
2019-05-18T04:01:40.489Z,1011
2019-05-18T04:02:38.267Z,1011
2019-05-18T04:03:38.284Z,1011.1
2019-05-18T04:04:38.273Z,1011.1
2019-05-18T04:05:38.371Z,1011
2019-05-18T04:06:38.316Z,1011
2019-05-18T04:07:38.318Z,1011
2019-05-18T04:08:38.347Z,1011
2019-05-18T04:09:38.379Z,1011
2019-05-18T04:10:38.336Z,1011
2019-05-18T04:11:38.341Z,1011
2019-05-18T04:12:38.359Z,1011
2019-05-18T04:13:38.336Z,1010.9
2019-05-18T04:14:38.405Z,1010.9
2019-05-18T04:15:38.344Z,1010.9
2019-05-18T04:16:38.376Z,1010.9
2019-05-18T04:17:38.431Z,1010.8
2019-05-18T04:18:38.424Z,1010.9
2019-05-18T04:19:46.041Z,1010.9
2019-05-18T04:20:38.560Z,1010.9
2019-05-18T04:21:38.648Z,1010.9
2019-05-18T04:22:38.741Z,1010.8
2019-05-18T04:23:38.690Z,1010.9
2019-05-18T04:24:38.745Z,1010.8
2019-05-18T04:25:38.784Z,1010.9
2019-05-18T04:26:38.814Z,1010.9
2019-05-18T04:27:38.920Z,1010.8
2019-05-18T04:28:38.958Z,1010.8
2019-05-18T04:29:39.008Z,1010.9
2019-05-18T04:30:39.044Z,1010.9
2019-05-18T04:31:39.169Z,1010.9
2019-05-18T04:32:39.129Z,1010.8
2019-05-18T04:33:39.162Z,1010.8
2019-05-18T04:34:39.267Z,1010.8
2019-05-18T04:35:39.277Z,1010.7
2019-05-18T04:36:39.342Z,1010.7
2019-05-18T04:37:39.391Z,1010.7
2019-05-18T04:38:39.370Z,1010.7
2019-05-18T04:39:39.471Z,1010.6
2019-05-18T04:40:39.515Z,1010.7
2019-05-18T04:41:39.536Z,1010.6
2019-05-18T04:42:39.612Z,1010.7
2019-05-18T04:43:39.651Z,1010.6
2019-05-18T04:44:39.721Z,1010.7
2019-05-18T04:45:39.796Z,1010.7
2019-05-18T04:46:39.786Z,1010.6
2019-05-18T04:47:39.805Z,1010.6
2019-05-18T04:48:39.870Z,1010.6
2019-05-18T04:49:39.902Z,1010.6
2019-05-18T04:50:39.969Z,1010.6
2019-05-18T04:51:39.981Z,1010.6
2019-05-18T04:52:40.047Z,1010.7
2019-05-18T04:53:40.067Z,1010.7
2019-05-18T04:54:40.123Z,1010.6
2019-05-18T04:55:40.191Z,1010.6
2019-05-18T04:56:42.780Z,1010.6
2019-05-18T04:57:40.244Z,1010.5
2019-05-18T04:58:40.242Z,1010.5
2019-05-18T04:59:40.292Z,1010.5
2019-05-18T05:00:40.354Z,1010.6
2019-05-18T05:01:40.374Z,1010.5
2019-05-18T05:02:40.365Z,1010.5
2019-05-18T05:03:40.389Z,1010.5
2019-05-18T05:04:40.426Z,1010.4
2019-05-18T05:05:40.483Z,1010.5
2019-05-18T05:06:40.472Z,1010.4
2019-05-18T05:07:40.487Z,1010.3
2019-05-18T05:08:40.538Z,1010.4
2019-05-18T05:09:40.544Z,1010.3
2019-05-18T05:10:40.601Z,1010.4
2019-05-18T05:11:40.866Z,1010.4
2019-05-18T05:12:40.643Z,1010.3
2019-05-18T05:13:40.676Z,1010.4
2019-05-18T05:14:40.744Z,1010.4
2019-05-18T05:15:40.758Z,1010.4
2019-05-18T05:16:40.762Z,1010.4
2019-05-18T05:17:40.782Z,1010.4
2019-05-18T05:18:40.825Z,1010.4
2019-05-18T05:19:40.851Z,1010.4
2019-05-18T05:20:40.945Z,1010.3
2019-05-18T05:21:40.927Z,1010.2
2019-05-18T05:22:40.944Z,1010.2
2019-05-18T05:23:40.952Z,1010.4
2019-05-18T05:24:41.029Z,1010.3
2019-05-18T05:25:41.032Z,1010.2
2019-05-18T05:26:40.995Z,1010.2
2019-05-18T05:27:41.035Z,1010.2
2019-05-18T05:28:41.069Z,1010.2
2019-05-18T05:29:41.085Z,1010.2
2019-05-18T05:30:41.156Z,1010.1
2019-05-18T05:31:41.142Z,1010.1
2019-05-18T05:32:41.169Z,1010.1
2019-05-18T05:33:41.171Z,1010.1
2019-05-18T05:34:41.244Z,1010.2
2019-05-18T05:35:41.217Z,1010.2
2019-05-18T05:36:41.250Z,1010.1
2019-05-18T05:37:41.243Z,1010.2
2019-05-18T05:38:43.523Z,1010.2
2019-05-18T05:39:41.282Z,1010.1
2019-05-18T05:40:41.306Z,1010.3
2019-05-18T05:41:41.356Z,1010.3
2019-05-18T05:42:41.340Z,1010.2
2019-05-18T05:43:41.354Z,1010.1
2019-05-18T05:44:41.391Z,1010.2
2019-05-18T05:45:41.396Z,1010.1
2019-05-18T05:46:41.442Z,1010.2
2019-05-18T05:47:41.421Z,1010.2
2019-05-18T05:48:41.448Z,1010.1
2019-05-18T05:49:41.507Z,1010
2019-05-18T05:50:41.449Z,1010
2019-05-18T05:51:41.456Z,1010
2019-05-18T05:52:41.556Z,1010
2019-05-18T05:53:41.464Z,1010
2019-05-18T05:54:41.518Z,1010
2019-05-18T05:55:41.549Z,1009.9
2019-05-18T05:56:41.515Z,1010
2019-05-18T05:57:41.495Z,1010
2019-05-18T05:58:41.528Z,1010
2019-05-18T05:59:41.499Z,1010
2019-05-18T06:00:41.499Z,1010
2019-05-18T06:01:41.504Z,1010
2019-05-18T06:02:41.627Z,1009.9
2019-05-18T06:03:41.609Z,1010
2019-05-18T06:04:41.687Z,1009.9
2019-05-18T06:05:41.685Z,1009.9
2019-05-18T06:06:41.723Z,1009.9
2019-05-18T06:07:41.787Z,1010
2019-05-18T06:08:41.861Z,1009.9
2019-05-18T06:09:44.180Z,1009.9
2019-05-18T06:10:41.870Z,1009.9
2019-05-18T06:11:41.904Z,1009.9
2019-05-18T06:12:41.990Z,1009.8
2019-05-18T06:13:41.961Z,1009.8
2019-05-18T06:14:42.117Z,1009.8
2019-05-18T06:15:42.069Z,1009.7
2019-05-18T06:16:42.093Z,1009.8
2019-05-18T06:17:42.130Z,1009.8
2019-05-18T06:18:42.161Z,1009.8
2019-05-18T06:19:42.193Z,1009.8
2019-05-18T06:20:50.742Z,1009.7
2019-05-18T06:21:42.325Z,1009.8
2019-05-18T06:22:42.425Z,1009.8
2019-05-18T06:23:42.406Z,1009.7
2019-05-18T06:24:42.464Z,1009.7
2019-05-18T06:25:42.513Z,1009.8
2019-05-18T06:26:42.593Z,1009.8
2019-05-18T06:27:42.636Z,1009.8
2019-05-18T06:28:42.686Z,1009.8
2019-05-18T06:29:42.750Z,1009.8
2019-05-18T06:30:42.775Z,1009.8
2019-05-18T06:31:42.860Z,1009.8
2019-05-18T06:32:42.916Z,1009.8
2019-05-18T06:33:42.920Z,1009.7
2019-05-18T06:34:42.972Z,1009.6
2019-05-18T06:35:42.951Z,1009.7
2019-05-18T06:36:43.006Z,1009.7
2019-05-18T06:37:43.091Z,1009.7
2019-05-18T06:38:43.133Z,1009.7
2019-05-18T06:39:43.137Z,1009.8
2019-05-18T06:40:43.162Z,1009.7
2019-05-18T06:41:43.214Z,1009.6
2019-05-18T06:42:43.243Z,1009.7
2019-05-18T06:43:43.245Z,1009.7
2019-05-18T06:44:43.288Z,1009.6
2019-05-18T06:45:43.335Z,1009.7
2019-05-18T06:46:43.437Z,1009.6
2019-05-18T06:47:43.429Z,1009.7
2019-05-18T06:48:43.485Z,1009.6
2019-05-18T06:49:43.483Z,1009.7
2019-05-18T06:50:43.546Z,1009.7
2019-05-18T06:51:43.540Z,1009.7
2019-05-18T06:52:43.588Z,1009.7
2019-05-18T06:53:43.628Z,1009.7
2019-05-18T06:54:43.664Z,1009.7
2019-05-18T06:55:43.693Z,1009.7
2019-05-18T06:56:43.722Z,1009.6
2019-05-18T06:57:43.718Z,1009.7
2019-05-18T06:58:43.734Z,1009.7
2019-05-18T06:59:43.775Z,1009.7
2019-05-18T07:00:43.823Z,1009.8
2019-05-18T07:01:43.878Z,1009.8
2019-05-18T07:02:43.852Z,1009.6
2019-05-18T07:03:45.087Z,1009.6
2019-05-18T07:04:44.634Z,1009.7
2019-05-18T07:05:43.965Z,1009.7
2019-05-18T07:06:43.947Z,1009.6
2019-05-18T07:07:43.991Z,1009.6
2019-05-18T07:08:44.036Z,1009.6
2019-05-18T07:09:44.104Z,1009.6
2019-05-18T07:10:44.110Z,1009.6
2019-05-18T07:11:44.130Z,1009.7
2019-05-18T07:12:44.171Z,1009.6
2019-05-18T07:13:44.180Z,1009.6
2019-05-18T07:14:44.199Z,1009.7
2019-05-18T07:15:44.244Z,1009.6
2019-05-18T07:16:44.312Z,1009.7
2019-05-18T07:17:44.312Z,1009.7
2019-05-18T07:18:44.307Z,1009.6
2019-05-18T07:19:44.355Z,1009.7
2019-05-18T07:20:44.354Z,1009.6
2019-05-18T07:21:44.359Z,1009.7
2019-05-18T07:22:44.385Z,1009.7
2019-05-18T07:23:44.398Z,1009.7
2019-05-18T07:24:44.443Z,1009.6
2019-05-18T07:25:44.455Z,1009.8
2019-05-18T07:26:44.513Z,1009.7
2019-05-18T07:27:44.511Z,1009.6
2019-05-18T07:28:44.503Z,1009.6
2019-05-18T07:29:44.527Z,1009.6
2019-05-18T07:30:44.517Z,1009.7
2019-05-18T07:31:44.599Z,1009.6
2019-05-18T07:32:44.530Z,1009.7
2019-05-18T07:33:44.548Z,1009.6
2019-05-18T07:34:44.585Z,1009.8
2019-05-18T07:35:44.591Z,1009.7
2019-05-18T07:36:44.574Z,1009.7
2019-05-18T07:37:44.599Z,1009.6
2019-05-18T07:38:44.661Z,1009.6
2019-05-18T07:39:44.607Z,1009.7
2019-05-18T07:40:45.612Z,1009.6
2019-05-18T07:41:46.982Z,1009.6
2019-05-18T07:42:44.611Z,1009.5
2019-05-18T07:43:44.644Z,1009.5
2019-05-18T07:44:44.615Z,1009.5
2019-05-18T07:45:44.704Z,1009.6
2019-05-18T07:46:44.741Z,1009.5
2019-05-18T07:47:44.801Z,1009.6
2019-05-18T07:48:44.806Z,1009.5
2019-05-18T07:49:44.842Z,1009.5
2019-05-18T07:50:44.879Z,1009.5
2019-05-18T07:51:44.900Z,1009.5
2019-05-18T07:52:44.922Z,1009.4
2019-05-18T07:53:45.009Z,1009.4
2019-05-18T07:54:45.028Z,1009.4
2019-05-18T07:55:45.090Z,1009.5
2019-05-18T07:56:45.152Z,1009.5
2019-05-18T07:57:45.220Z,1009.5
2019-05-18T07:58:45.161Z,1009.4
2019-05-18T07:59:45.237Z,1009.4
2019-05-18T08:00:45.289Z,1009.4
2019-05-18T08:01:45.359Z,1009.5
2019-05-18T08:02:47.974Z,1009.5
2019-05-18T08:03:45.435Z,1009.4
2019-05-18T08:04:45.543Z,1009.4
2019-05-18T08:05:45.555Z,1009.4
2019-05-18T08:06:45.570Z,1009.4
2019-05-18T08:07:45.636Z,1009.4
2019-05-18T08:08:45.674Z,1009.3
2019-05-18T08:09:45.711Z,1009.3
2019-05-18T08:10:45.723Z,1009.3
2019-05-18T08:11:45.790Z,1009.3
2019-05-18T08:12:45.808Z,1009.3
2019-05-18T08:13:45.822Z,1009.4
2019-05-18T08:14:45.882Z,1009.4
2019-05-18T08:15:45.915Z,1009.4
2019-05-18T08:16:45.978Z,1009.4
2019-05-18T08:17:46.077Z,1009.4
2019-05-18T08:18:46.024Z,1009.3
2019-05-18T08:19:46.044Z,1009.2
2019-05-18T08:20:46.113Z,1009.2
2019-05-18T08:21:53.020Z,1009.2
2019-05-18T08:22:46.235Z,1009.2
2019-05-18T08:23:46.175Z,1009.3
2019-05-18T08:24:46.217Z,1009.4
2019-05-18T08:25:46.211Z,1009.3
2019-05-18T08:26:46.259Z,1009.2
2019-05-18T08:27:46.339Z,1009.3
2019-05-18T08:28:46.335Z,1009.3
2019-05-18T08:29:46.360Z,1009.3
2019-05-18T08:30:46.379Z,1009.2
2019-05-18T08:31:46.437Z,1009.2
2019-05-18T08:32:46.479Z,1009.3
2019-05-18T08:33:46.429Z,1009.2
2019-05-18T08:34:46.560Z,1009.2
2019-05-18T08:35:46.473Z,1009.1
2019-05-18T08:36:46.465Z,1009.3
2019-05-18T08:37:46.564Z,1009.2
2019-05-18T08:38:46.579Z,1009.3
2019-05-18T08:39:46.587Z,1009.2
2019-05-18T08:40:46.631Z,1009.2
2019-05-18T08:41:48.694Z,1009.3
2019-05-18T08:42:46.852Z,1009.2
2019-05-18T08:43:46.746Z,1009.2
2019-05-18T08:44:46.740Z,1009.2
2019-05-18T08:45:46.799Z,1009.3
2019-05-18T08:46:46.798Z,1009.3
2019-05-18T08:47:46.929Z,1009.3
2019-05-18T08:48:46.909Z,1009.3
2019-05-18T08:49:46.906Z,1009.3
2019-05-18T08:50:46.940Z,1009.3
2019-05-18T08:51:46.976Z,1009.2
2019-05-18T08:52:47.055Z,1009.3
2019-05-18T08:53:47.017Z,1009.3
2019-05-18T08:54:47.041Z,1009.4
2019-05-18T08:55:47.029Z,1009.3
2019-05-18T08:56:47.090Z,1009.3
2019-05-18T08:57:47.134Z,1009.2
2019-05-18T08:58:47.126Z,1009.3
2019-05-18T08:59:47.134Z,1009.4
2019-05-18T09:00:47.136Z,1009.3
2019-05-18T09:01:47.159Z,1009.2
2019-05-18T09:02:47.199Z,1009.3
2019-05-18T09:03:47.257Z,1009.4
2019-05-18T09:04:47.220Z,1009.4
2019-05-18T09:05:47.231Z,1009.4
2019-05-18T09:06:47.237Z,1009.4
2019-05-18T09:07:47.300Z,1009.3
2019-05-18T09:08:47.312Z,1009.4
2019-05-18T09:09:47.377Z,1009.3
2019-05-18T09:10:47.331Z,1009.4
2019-05-18T09:11:47.324Z,1009.3
2019-05-18T09:12:47.345Z,1009.4
2019-05-18T09:13:47.395Z,1009.3
2019-05-18T09:14:47.380Z,1009.4
2019-05-18T09:15:47.395Z,1009.5
2019-05-18T09:16:47.402Z,1009.5
2019-05-18T09:17:47.408Z,1009.4
2019-05-18T09:18:47.463Z,1009.5
2019-05-18T09:19:47.430Z,1009.5
2019-05-18T09:20:47.430Z,1009.4
2019-05-18T09:21:47.438Z,1009.5
2019-05-18T09:22:47.434Z,1009.4
2019-05-18T09:23:47.462Z,1009.5
2019-05-18T09:24:47.511Z,1009.5
2019-05-18T09:25:47.444Z,1009.5
2019-05-18T09:26:47.444Z,1009.5
2019-05-18T09:27:47.488Z,1009.4
2019-05-18T09:28:49.753Z,1009.5
2019-05-18T09:29:47.555Z,1009.4
2019-05-18T09:30:47.615Z,1009.5
2019-05-18T09:31:47.676Z,1009.4
2019-05-18T09:32:47.697Z,1009.5
2019-05-18T09:33:47.749Z,1009.3
2019-05-18T09:34:47.807Z,1009.5
2019-05-18T09:35:47.810Z,1009.3
2019-05-18T09:36:47.840Z,1009.4
2019-05-18T09:37:47.837Z,1009.3
2019-05-18T09:38:47.936Z,1009.4
2019-05-18T09:39:47.949Z,1009.5
2019-05-18T09:40:47.996Z,1009.3
2019-05-18T09:41:48.046Z,1009.3
2019-05-18T09:42:48.059Z,1009.3
2019-05-18T09:43:48.090Z,1009.3
2019-05-18T09:44:48.156Z,1009.3
2019-05-18T09:45:48.219Z,1009.3
2019-05-18T09:46:48.223Z,1009.4
2019-05-18T09:47:48.263Z,1009.4
2019-05-18T09:48:48.336Z,1009.3
2019-05-18T09:49:48.337Z,1009.4
2019-05-18T09:50:48.396Z,1009.4
2019-05-18T09:51:48.453Z,1009.4
2019-05-18T09:52:48.525Z,1009.3
2019-05-18T09:53:51.371Z,1009.4
2019-05-18T09:54:48.550Z,1009.4
2019-05-18T09:55:48.611Z,1009.3
2019-05-18T09:56:48.671Z,1009.4
2019-05-18T09:57:48.718Z,1009.3
2019-05-18T09:58:48.747Z,1009.4
2019-05-18T09:59:48.870Z,1009.3
2019-05-18T10:00:48.819Z,1009.3
2019-05-18T10:01:48.855Z,1009.4
2019-05-18T10:02:48.946Z,1009.4
2019-05-18T10:03:48.905Z,1009.3
2019-05-18T10:04:48.997Z,1009.4
2019-05-18T10:05:49.034Z,1009.2
2019-05-18T10:06:49.097Z,1009.2
2019-05-18T10:07:49.098Z,1009.2
2019-05-18T10:08:49.117Z,1009.4
2019-05-18T10:09:49.161Z,1009.3
2019-05-18T10:10:49.233Z,1009.3
2019-05-18T10:11:49.189Z,1009.3
2019-05-18T10:12:49.241Z,1009.4
2019-05-18T10:13:49.259Z,1009.3
2019-05-18T10:14:49.322Z,1009.4
2019-05-18T10:15:49.351Z,1009.2
2019-05-18T10:16:49.393Z,1009.3
2019-05-18T10:17:49.429Z,1009.3
2019-05-18T10:18:49.447Z,1009.3
2019-05-18T10:19:49.540Z,1009.3
2019-05-18T10:20:49.511Z,1009.3
2019-05-18T10:21:49.515Z,1009.3
2019-05-18T10:22:55.775Z,1009.4
2019-05-18T10:23:49.597Z,1009.4
2019-05-18T10:24:49.674Z,1009.4
2019-05-18T10:25:49.651Z,1009.4
2019-05-18T10:26:49.691Z,1009.4
2019-05-18T10:27:49.803Z,1009.4
2019-05-18T10:28:49.738Z,1009.5
2019-05-18T10:29:49.802Z,1009.5
2019-05-18T10:30:49.861Z,1009.4
2019-05-18T10:31:49.852Z,1009.4
2019-05-18T10:32:49.914Z,1009.4
2019-05-18T10:33:49.923Z,1009.4
2019-05-18T10:34:49.979Z,1009.3
2019-05-18T10:35:49.991Z,1009.3
2019-05-18T10:36:50.046Z,1009.4
2019-05-18T10:37:50.055Z,1009.3
2019-05-18T10:38:50.090Z,1009.3
2019-05-18T10:39:50.118Z,1009.4
2019-05-18T10:40:50.112Z,1009.3
2019-05-18T10:41:50.183Z,1009.3
2019-05-18T10:42:50.175Z,1009.4
2019-05-18T10:43:50.212Z,1009.3
2019-05-18T10:44:50.233Z,1009.4
2019-05-18T10:45:50.280Z,1009.2
2019-05-18T10:46:50.350Z,1009.3
2019-05-18T10:47:50.308Z,1009.3
2019-05-18T10:48:50.336Z,1009.2
2019-05-18T10:49:50.370Z,1009.2
2019-05-18T10:50:50.351Z,1009.2
2019-05-18T10:51:50.409Z,1009.2
2019-05-18T10:52:50.406Z,1009.3
2019-05-18T10:53:50.413Z,1009.2
2019-05-18T10:54:50.430Z,1009.2
2019-05-18T10:55:50.450Z,1009.3
2019-05-18T10:56:50.482Z,1009.3
2019-05-18T10:57:50.497Z,1009.2
2019-05-18T10:58:50.462Z,1009.3
2019-05-18T10:59:50.515Z,1009.3
2019-05-18T11:00:50.512Z,1009.3
2019-05-18T11:01:50.505Z,1009.2
2019-05-18T11:02:50.496Z,1009.2
2019-05-18T11:03:50.549Z,1009.3
2019-05-18T11:04:50.523Z,1009.2
2019-05-18T11:05:52.824Z,1009.2
2019-05-18T11:06:50.570Z,1009.2
2019-05-18T11:07:52.561Z,1009.2
2019-05-18T11:08:52.125Z,1009.2
2019-05-18T11:09:51.798Z,1009.1
2019-05-18T11:10:52.629Z,1009.2
2019-05-18T11:11:54.181Z,1009.1
2019-05-18T11:12:50.711Z,1009.1
2019-05-18T11:13:51.660Z,1009.1
2019-05-18T11:14:50.648Z,1009.1
2019-05-18T11:15:50.731Z,1009
2019-05-18T11:16:50.824Z,1009.1
2019-05-18T11:17:50.813Z,1009.1
2019-05-18T11:18:50.864Z,1009.1
2019-05-18T11:19:50.953Z,1009
2019-05-18T11:20:50.939Z,1009.1
2019-05-18T11:21:51.005Z,1009.1
2019-05-18T11:22:52.889Z,1009.1
2019-05-18T11:23:56.425Z,1009.1
2019-05-18T11:24:51.177Z,1009
2019-05-18T11:25:51.226Z,1009.1
2019-05-18T11:26:51.307Z,1009.2
2019-05-18T11:27:51.280Z,1009.1
2019-05-18T11:28:51.368Z,1009.1
2019-05-18T11:29:51.392Z,1009.1
2019-05-18T11:30:51.474Z,1009.2
2019-05-18T11:31:51.535Z,1009.2
2019-05-18T11:32:51.566Z,1009.2
2019-05-18T11:33:51.620Z,1009.1
2019-05-18T11:34:51.692Z,1009.1
2019-05-18T11:35:51.707Z,1009.2
2019-05-18T11:36:51.792Z,1009.1
2019-05-18T11:37:53.250Z,1009.1
2019-05-18T11:38:54.331Z,1009
2019-05-18T11:39:51.899Z,1009
2019-05-18T11:40:51.990Z,1009
2019-05-18T11:41:52.051Z,1008.9
2019-05-18T11:42:52.054Z,1009
2019-05-18T11:43:52.076Z,1009
2019-05-18T11:44:52.150Z,1009
2019-05-18T11:45:52.157Z,1009
2019-05-18T11:46:52.227Z,1009
2019-05-18T11:47:52.260Z,1008.9
2019-05-18T11:48:52.301Z,1008.9
2019-05-18T11:49:52.403Z,1008.9
2019-05-18T11:50:52.381Z,1009
2019-05-18T11:51:52.464Z,1008.9
2019-05-18T11:52:54.541Z,1008.9
2019-05-18T11:53:58.042Z,1008.9
2019-05-18T11:54:53.869Z,1008.9
2019-05-18T11:55:54.765Z,1008.9
2019-05-18T11:56:52.660Z,1008.9
2019-05-18T11:57:52.685Z,1008.9
2019-05-18T11:58:52.695Z,1008.9
2019-05-18T11:59:52.737Z,1008.8
2019-05-18T12:00:52.781Z,1008.8
2019-05-18T12:01:52.824Z,1008.9
2019-05-18T12:02:52.867Z,1008.9
2019-05-18T12:03:52.855Z,1008.9
2019-05-18T12:04:52.900Z,1008.9
2019-05-18T12:05:52.947Z,1008.9
2019-05-18T12:06:53.006Z,1008.8
2019-05-18T12:07:53.040Z,1009
2019-05-18T12:08:53.033Z,1008.8
2019-05-18T12:09:53.101Z,1008.9
2019-05-18T12:10:56.018Z,1008.9
2019-05-18T12:11:53.180Z,1008.8
2019-05-18T12:12:53.235Z,1008.8
2019-05-18T12:13:53.246Z,1008.9
2019-05-18T12:14:53.279Z,1008.8
2019-05-18T12:15:53.275Z,1008.9
2019-05-18T12:16:53.351Z,1008.8
2019-05-18T12:17:53.404Z,1008.8
2019-05-18T12:18:57.628Z,1008.8
2019-05-18T12:19:53.369Z,1008.8
2019-05-18T12:20:53.359Z,1008.7
2019-05-18T12:21:53.438Z,1008.8
2019-05-18T12:22:53.444Z,1008.8
2019-05-18T12:23:53.462Z,1008.8
2019-05-18T12:24:53.451Z,1008.8
2019-05-18T12:25:53.517Z,1008.9
2019-05-18T12:26:53.507Z,1008.8
2019-05-18T12:27:53.545Z,1008.7
2019-05-18T12:28:53.555Z,1008.7
2019-05-18T12:29:53.562Z,1008.7
2019-05-18T12:30:53.644Z,1008.7
2019-05-18T12:31:53.648Z,1008.7